Irondequoit, New York
Current Conditions -  °F | °C
As of 2:54 AM on Saturday 20 Dec 2014 (Local Time) from KROC Reporting Station
Overcast Overcast  
Wind Chill: 28°   Ceiling: 2200
Heat Index: 28°   Visibility: 10mi
Dew Point: 21°   Wind: 3mph
Humidity: 75%   Direction: 330°NNW
Pressure: 30.23"   Gusts: NA
Location:  43.21°N, 77.58°W
Report Text: KROC 200754Z 33003KT 10SM OVC022 M02/M06 A3023 RMK AO2 SLP248 T10221061
Loading
Personal Weather Stations






























Interactive Weather Map New forecast layout! Learn more

10-Day Weather Forecast

Advertisements
Track Severe Weather on mobile